sensor_id;sensor_type;location;lat;lon;timestamp;P1;durP1;ratioP1;P2;durP2;ratioP2
84759;SDS011;74983;51.084;11.086;2024-02-21T00:00:28;8.07;;;3.08;;
84759;SDS011;74983;51.084;11.086;2024-02-21T00:02:53;8.20;;;2.50;;
84759;SDS011;74983;51.084;11.086;2024-02-21T00:05:18;7.00;;;2.77;;
84759;SDS011;74983;51.084;11.086;2024-02-21T00:07:43;8.50;;;2.67;;
84759;SDS011;74983;51.084;11.086;2024-02-21T00:10:09;6.23;;;2.20;;
84759;SDS011;74983;51.084;11.086;2024-02-21T00:12:34;6.83;;;2.70;;
84759;SDS011;74983;51.084;11.086;2024-02-21T00:14:59;8.25;;;2.80;;
84759;SDS011;74983;51.084;11.086;2024-02-21T00:17:25;12.27;;;3.03;;
84759;SDS011;74983;51.084;11.086;2024-02-21T00:19:51;14.32;;;2.65;;
84759;SDS011;74983;51.084;11.086;2024-02-21T00:22:16;7.83;;;3.27;;
84759;SDS011;74983;51.084;11.086;2024-02-21T00:24:41;4.63;;;2.53;;
84759;SDS011;74983;51.084;11.086;2024-02-21T00:27:06;9.83;;;2.50;;
84759;SDS011;74983;51.084;11.086;2024-02-21T00:29:32;6.37;;;2.33;;
84759;SDS011;74983;51.084;11.086;2024-02-21T00:31:57;6.83;;;2.27;;
84759;SDS011;74983;51.084;11.086;2024-02-21T00:34:22;8.47;;;2.50;;
84759;SDS011;74983;51.084;11.086;2024-02-21T00:36:47;7.67;;;2.40;;
84759;SDS011;74983;51.084;11.086;2024-02-21T00:39:13;15.77;;;3.20;;
84759;SDS011;74983;51.084;11.086;2024-02-21T00:41:38;4.27;;;2.10;;
84759;SDS011;74983;51.084;11.086;2024-02-21T00:44:03;6.17;;;2.13;;
84759;SDS011;74983;51.084;11.086;2024-02-21T00:46:30;5.88;;;2.95;;
84759;SDS011;74983;51.084;11.086;2024-02-21T00:48:55;6.43;;;2.73;;
84759;SDS011;74983;51.084;11.086;2024-02-21T00:51:21;6.67;;;2.20;;
84759;SDS011;74983;51.084;11.086;2024-02-21T00:53:46;8.40;;;2.53;;
84759;SDS011;74983;51.084;11.086;2024-02-21T00:56:11;8.57;;;3.07;;
84759;SDS011;74983;51.084;11.086;2024-02-21T00:58:36;13.18;;;3.30;;
84759;SDS011;74983;51.084;11.086;2024-02-21T01:01:02;5.80;;;2.73;;
84759;SDS011;74983;51.084;11.086;2024-02-21T01:03:28;9.82;;;2.88;;
84759;SDS011;74983;51.084;11.086;2024-02-21T01:05:53;7.20;;;2.30;;
84759;SDS011;74983;51.084;11.086;2024-02-21T01:08:18;7.53;;;2.50;;
84759;SDS011;74983;51.084;11.086;2024-02-21T01:10:43;10.50;;;2.60;;
84759;SDS011;74983;51.084;11.086;2024-02-21T01:13:09;8.30;;;2.13;;
84759;SDS011;74983;51.084;11.086;2024-02-21T01:15:34;6.47;;;2.67;;
84759;SDS011;74983;51.084;11.086;2024-02-21T01:17:59;8.20;;;2.70;;
84759;SDS011;74983;51.084;11.086;2024-02-21T01:20:24;7.30;;;2.53;;
84759;SDS011;74983;51.084;11.086;2024-02-21T01:22:50;5.10;;;2.23;;
84759;SDS011;74983;51.084;11.086;2024-02-21T01:25:15;14.03;;;2.87;;
84759;SDS011;74983;51.084;11.086;2024-02-21T01:27:40;11.48;;;3.05;;
84759;SDS011;74983;51.084;11.086;2024-02-21T01:30:06;12.65;;;3.20;;
84759;SDS011;74983;51.084;11.086;2024-02-21T01:32:32;10.82;;;3.22;;
84759;SDS011;74983;51.084;11.086;2024-02-21T01:34:57;17.77;;;3.60;;
84759;SDS011;74983;51.084;11.086;2024-02-21T01:37:23;11.83;;;2.60;;
84759;SDS011;74983;51.084;11.086;2024-02-21T01:39:48;11.73;;;3.77;;
84759;SDS011;74983;51.084;11.086;2024-02-21T01:42:14;9.48;;;4.05;;
84759;SDS011;74983;51.084;11.086;2024-02-21T01:44:39;11.70;;;3.10;;
84759;SDS011;74983;51.084;11.086;2024-02-21T01:47:05;7.73;;;2.67;;
84759;SDS011;74983;51.084;11.086;2024-02-21T01:49:30;11.07;;;3.53;;
84759;SDS011;74983;51.084;11.086;2024-02-21T01:51:55;10.90;;;3.80;;
84759;SDS011;74983;51.084;11.086;2024-02-21T01:54:21;7.63;;;3.88;;
84759;SDS011;74983;51.084;11.086;2024-02-21T01:56:46;12.68;;;3.78;;
84759;SDS011;74983;51.084;11.086;2024-02-21T01:59:12;11.20;;;4.00;;
84759;SDS011;74983;51.084;11.086;2024-02-21T02:01:39;10.52;;;3.15;;
84759;SDS011;74983;51.084;11.086;2024-02-21T02:04:04;9.95;;;3.10;;
84759;SDS011;74983;51.084;11.086;2024-02-21T02:06:31;8.57;;;3.13;;
84759;SDS011;74983;51.084;11.086;2024-02-21T02:08:56;8.38;;;3.45;;
84759;SDS011;74983;51.084;11.086;2024-02-21T02:11:22;7.80;;;3.23;;
84759;SDS011;74983;51.084;11.086;2024-02-21T02:13:47;15.70;;;3.23;;
84759;SDS011;74983;51.084;11.086;2024-02-21T02:16:12;10.97;;;3.10;;
84759;SDS011;74983;51.084;11.086;2024-02-21T02:18:37;8.87;;;3.80;;
84759;SDS011;74983;51.084;11.086;2024-02-21T02:21:07;9.20;;;3.73;;
84759;SDS011;74983;51.084;11.086;2024-02-21T02:23:38;14.30;;;3.90;;
84759;SDS011;74983;51.084;11.086;2024-02-21T02:26:03;12.50;;;3.73;;
84759;SDS011;74983;51.084;11.086;2024-02-21T02:28:28;11.27;;;4.57;;
84759;SDS011;74983;51.084;11.086;2024-02-21T02:30:54;7.77;;;3.47;;
84759;SDS011;74983;51.084;11.086;2024-02-21T02:33:19;7.97;;;3.08;;
84759;SDS011;74983;51.084;11.086;2024-02-21T02:35:45;11.93;;;4.03;;
84759;SDS011;74983;51.084;11.086;2024-02-21T02:38:11;9.00;;;3.63;;
84759;SDS011;74983;51.084;11.086;2024-02-21T02:40:38;12.30;;;3.83;;
84759;SDS011;74983;51.084;11.086;2024-02-21T02:43:04;6.85;;;2.38;;
84759;SDS011;74983;51.084;11.086;2024-02-21T02:45:29;8.33;;;2.60;;
84759;SDS011;74983;51.084;11.086;2024-02-21T02:47:55;7.63;;;3.58;;
84759;SDS011;74983;51.084;11.086;2024-02-21T02:50:21;9.90;;;2.75;;
84759;SDS011;74983;51.084;11.086;2024-02-21T02:52:47;7.72;;;2.08;;
84759;SDS011;74983;51.084;11.086;2024-02-21T02:55:12;8.40;;;1.97;;
84759;SDS011;74983;51.084;11.086;2024-02-21T02:57:37;7.67;;;2.60;;
84759;SDS011;74983;51.084;11.086;2024-02-21T03:00:03;11.33;;;2.83;;
84759;SDS011;74983;51.084;11.086;2024-02-21T03:02:29;6.75;;;2.55;;
84759;SDS011;74983;51.084;11.086;2024-02-21T03:04:56;8.45;;;3.38;;
84759;SDS011;74983;51.084;11.086;2024-02-21T03:07:21;8.93;;;2.53;;
84759;SDS011;74983;51.084;11.086;2024-02-21T03:09:46;8.03;;;3.30;;
84759;SDS011;74983;51.084;11.086;2024-02-21T03:12:11;6.07;;;2.57;;
84759;SDS011;74983;51.084;11.086;2024-02-21T03:14:37;5.43;;;2.57;;
84759;SDS011;74983;51.084;11.086;2024-02-21T03:17:02;7.47;;;2.60;;
84759;SDS011;74983;51.084;11.086;2024-02-21T03:19:28;8.43;;;3.60;;
84759;SDS011;74983;51.084;11.086;2024-02-21T03:21:54;12.30;;;3.70;;
84759;SDS011;74983;51.084;11.086;2024-02-21T03:24:19;8.43;;;2.72;;
84759;SDS011;74983;51.084;11.086;2024-02-21T03:26:45;10.15;;;3.65;;
84759;SDS011;74983;51.084;11.086;2024-02-21T03:29:14;9.05;;;2.70;;
84759;SDS011;74983;51.084;11.086;2024-02-21T03:31:40;11.48;;;3.05;;
84759;SDS011;74983;51.084;11.086;2024-02-21T03:34:06;11.38;;;3.45;;
84759;SDS011;74983;51.084;11.086;2024-02-21T03:36:32;13.18;;;4.32;;
84759;SDS011;74983;51.084;11.086;2024-02-21T03:38:57;13.47;;;4.47;;
84759;SDS011;74983;51.084;11.086;2024-02-21T03:41:22;11.97;;;3.50;;
84759;SDS011;74983;51.084;11.086;2024-02-21T03:43:48;11.00;;;4.43;;
84759;SDS011;74983;51.084;11.086;2024-02-21T03:46:14;9.90;;;3.90;;
84759;SDS011;74983;51.084;11.086;2024-02-21T03:48:39;9.32;;;3.72;;
84759;SDS011;74983;51.084;11.086;2024-02-21T03:51:04;12.97;;;3.17;;
84759;SDS011;74983;51.084;11.086;2024-02-21T03:53:30;8.17;;;3.13;;
84759;SDS011;74983;51.084;11.086;2024-02-21T03:55:55;10.60;;;3.43;;
84759;SDS011;74983;51.084;11.086;2024-02-21T03:58:21;10.60;;;3.25;;
84759;SDS011;74983;51.084;11.086;2024-02-21T04:00:47;12.80;;;4.97;;
84759;SDS011;74983;51.084;11.086;2024-02-21T04:03:12;13.00;;;3.65;;
84759;SDS011;74983;51.084;11.086;2024-02-21T04:05:37;12.50;;;3.60;;
84759;SDS011;74983;51.084;11.086;2024-02-21T04:08:04;7.53;;;3.27;;
84759;SDS011;74983;51.084;11.086;2024-02-21T04:10:30;9.40;;;4.13;;
84759;SDS011;74983;51.084;11.086;2024-02-21T04:12:55;10.53;;;4.57;;
84759;SDS011;74983;51.084;11.086;2024-02-21T04:15:20;10.00;;;4.00;;
84759;SDS011;74983;51.084;11.086;2024-02-21T04:17:45;8.77;;;3.43;;
84759;SDS011;74983;51.084;11.086;2024-02-21T04:20:14;9.40;;;3.53;;
84759;SDS011;74983;51.084;11.086;2024-02-21T04:25:07;13.10;;;3.55;;
84759;SDS011;74983;51.084;11.086;2024-02-21T04:27:33;7.50;;;3.08;;
84759;SDS011;74983;51.084;11.086;2024-02-21T04:29:58;7.93;;;3.47;;
84759;SDS011;74983;51.084;11.086;2024-02-21T04:32:23;7.97;;;3.27;;
84759;SDS011;74983;51.084;11.086;2024-02-21T04:34:49;6.47;;;2.92;;
84759;SDS011;74983;51.084;11.086;2024-02-21T04:37:14;9.20;;;3.60;;
84759;SDS011;74983;51.084;11.086;2024-02-21T04:39:40;8.00;;;3.13;;
84759;SDS011;74983;51.084;11.086;2024-02-21T04:42:05;8.65;;;3.78;;
84759;SDS011;74983;51.084;11.086;2024-02-21T04:44:31;7.73;;;3.30;;
84759;SDS011;74983;51.084;11.086;2024-02-21T04:46:56;14.03;;;3.90;;
84759;SDS011;74983;51.084;11.086;2024-02-21T04:49:21;11.90;;;4.50;;
84759;SDS011;74983;51.084;11.086;2024-02-21T04:51:47;7.57;;;3.20;;
84759;SDS011;74983;51.084;11.086;2024-02-21T04:54:12;8.37;;;3.47;;
84759;SDS011;74983;51.084;11.086;2024-02-21T04:56:37;10.97;;;3.97;;
84759;SDS011;74983;51.084;11.086;2024-02-21T04:59:02;8.93;;;3.60;;
84759;SDS011;74983;51.084;11.086;2024-02-21T05:01:28;12.20;;;3.85;;
84759;SDS011;74983;51.084;11.086;2024-02-21T05:03:53;9.77;;;3.92;;
84759;SDS011;74983;51.084;11.086;2024-02-21T05:06:19;12.03;;;4.07;;
84759;SDS011;74983;51.084;11.086;2024-02-21T05:08:44;8.63;;;2.90;;
84759;SDS011;74983;51.084;11.086;2024-02-21T05:11:09;12.60;;;4.22;;
84759;SDS011;74983;51.084;11.086;2024-02-21T05:13:35;13.53;;;6.33;;
84759;SDS011;74983;51.084;11.086;2024-02-21T05:16:00;7.33;;;3.30;;
84759;SDS011;74983;51.084;11.086;2024-02-21T05:18:26;12.18;;;4.55;;
84759;SDS011;74983;51.084;11.086;2024-02-21T05:20:52;7.07;;;3.58;;
84759;SDS011;74983;51.084;11.086;2024-02-21T05:23:17;10.67;;;3.10;;
84759;SDS011;74983;51.084;11.086;2024-02-21T05:25:42;9.87;;;3.70;;
84759;SDS011;74983;51.084;11.086;2024-02-21T05:28:08;10.07;;;2.87;;
84759;SDS011;74983;51.084;11.086;2024-02-21T05:30:33;14.57;;;4.60;;
84759;SDS011;74983;51.084;11.086;2024-02-21T05:32:58;10.48;;;3.25;;
84759;SDS011;74983;51.084;11.086;2024-02-21T05:35:27;6.07;;;2.90;;
84759;SDS011;74983;51.084;11.086;2024-02-21T05:37:52;8.15;;;2.55;;
84759;SDS011;74983;51.084;11.086;2024-02-21T05:40:18;1.37;;;1.23;;
84759;SDS011;74983;51.084;11.086;2024-02-21T05:42:44;6.82;;;3.17;;
84759;SDS011;74983;51.084;11.086;2024-02-21T05:45:09;13.87;;;3.70;;
84759;SDS011;74983;51.084;11.086;2024-02-21T05:47:34;5.83;;;2.90;;
84759;SDS011;74983;51.084;11.086;2024-02-21T05:50:00;12.23;;;3.70;;
84759;SDS011;74983;51.084;11.086;2024-02-21T05:52:25;7.23;;;3.03;;
84759;SDS011;74983;51.084;11.086;2024-02-21T05:54:50;8.07;;;3.20;;
84759;SDS011;74983;51.084;11.086;2024-02-21T05:57:16;7.67;;;3.37;;
84759;SDS011;74983;51.084;11.086;2024-02-21T05:59:44;9.90;;;3.85;;
84759;SDS011;74983;51.084;11.086;2024-02-21T06:02:10;8.60;;;3.90;;
84759;SDS011;74983;51.084;11.086;2024-02-21T06:04:35;7.50;;;3.07;;
84759;SDS011;74983;51.084;11.086;2024-02-21T06:07:00;10.73;;;4.20;;
84759;SDS011;74983;51.084;11.086;2024-02-21T06:09:26;10.88;;;4.00;;
84759;SDS011;74983;51.084;11.086;2024-02-21T06:11:52;8.35;;;3.40;;
84759;SDS011;74983;51.084;11.086;2024-02-21T06:14:17;8.30;;;2.83;;
84759;SDS011;74983;51.084;11.086;2024-02-21T06:16:43;7.03;;;3.83;;
84759;SDS011;74983;51.084;11.086;2024-02-21T06:19:08;6.95;;;3.08;;
84759;SDS011;74983;51.084;11.086;2024-02-21T06:21:34;8.23;;;3.73;;
84759;SDS011;74983;51.084;11.086;2024-02-21T06:23:59;7.83;;;3.23;;
84759;SDS011;74983;51.084;11.086;2024-02-21T06:26:24;7.47;;;3.37;;
84759;SDS011;74983;51.084;11.086;2024-02-21T06:28:50;7.67;;;3.47;;
84759;SDS011;74983;51.084;11.086;2024-02-21T06:31:15;5.83;;;2.73;;
84759;SDS011;74983;51.084;11.086;2024-02-21T06:33:41;10.65;;;3.90;;
84759;SDS011;74983;51.084;11.086;2024-02-21T06:36:06;6.10;;;2.93;;
84759;SDS011;74983;51.084;11.086;2024-02-21T06:38:31;15.60;;;3.90;;
84759;SDS011;74983;51.084;11.086;2024-02-21T06:40:58;7.05;;;3.15;;
84759;SDS011;74983;51.084;11.086;2024-02-21T06:43:25;7.90;;;2.95;;
84759;SDS011;74983;51.084;11.086;2024-02-21T06:45:50;4.87;;;2.40;;
84759;SDS011;74983;51.084;11.086;2024-02-21T06:48:16;6.47;;;3.08;;
84759;SDS011;74983;51.084;11.086;2024-02-21T06:50:43;9.52;;;4.03;;
84759;SDS011;74983;51.084;11.086;2024-02-21T06:53:08;11.13;;;4.03;;
84759;SDS011;74983;51.084;11.086;2024-02-21T06:55:33;8.03;;;3.60;;
84759;SDS011;74983;51.084;11.086;2024-02-21T06:57:58;8.83;;;5.13;;
84759;SDS011;74983;51.084;11.086;2024-02-21T07:00:24;6.27;;;3.30;;
84759;SDS011;74983;51.084;11.086;2024-02-21T07:02:50;6.07;;;3.05;;
84759;SDS011;74983;51.084;11.086;2024-02-21T07:05:15;9.40;;;4.23;;
84759;SDS011;74983;51.084;11.086;2024-02-21T07:07:41;9.50;;;3.57;;
84759;SDS011;74983;51.084;11.086;2024-02-21T07:10:06;9.73;;;5.00;;
84759;SDS011;74983;51.084;11.086;2024-02-21T07:12:32;12.13;;;5.38;;
84759;SDS011;74983;51.084;11.086;2024-02-21T07:14:58;5.05;;;2.85;;
84759;SDS011;74983;51.084;11.086;2024-02-21T07:17:23;7.07;;;4.03;;
84759;SDS011;74983;51.084;11.086;2024-02-21T07:19:49;9.13;;;4.67;;
84759;SDS011;74983;51.084;11.086;2024-02-21T07:22:14;9.00;;;4.33;;
84759;SDS011;74983;51.084;11.086;2024-02-21T07:24:39;8.13;;;3.87;;
84759;SDS011;74983;51.084;11.086;2024-02-21T07:27:04;8.45;;;4.15;;
84759;SDS011;74983;51.084;11.086;2024-02-21T07:29:30;10.60;;;5.33;;
84759;SDS011;74983;51.084;11.086;2024-02-21T07:31:56;11.15;;;4.53;;
84759;SDS011;74983;51.084;11.086;2024-02-21T07:34:21;12.73;;;4.57;;
84759;SDS011;74983;51.084;11.086;2024-02-21T07:36:46;9.60;;;5.30;;
84759;SDS011;74983;51.084;11.086;2024-02-21T07:39:12;10.17;;;4.03;;
84759;SDS011;74983;51.084;11.086;2024-02-21T07:41:37;7.03;;;3.03;;
84759;SDS011;74983;51.084;11.086;2024-02-21T07:44:04;9.32;;;4.18;;
84759;SDS011;74983;51.084;11.086;2024-02-21T07:46:29;10.23;;;4.53;;
84759;SDS011;74983;51.084;11.086;2024-02-21T07:48:55;11.80;;;4.20;;
84759;SDS011;74983;51.084;11.086;2024-02-21T07:51:20;8.57;;;3.67;;
84759;SDS011;74983;51.084;11.086;2024-02-21T07:53:46;7.57;;;3.92;;
84759;SDS011;74983;51.084;11.086;2024-02-21T07:56:12;7.35;;;3.10;;
84759;SDS011;74983;51.084;11.086;2024-02-21T07:58:37;11.60;;;5.00;;
84759;SDS011;74983;51.084;11.086;2024-02-21T08:01:03;12.00;;;4.03;;
84759;SDS011;74983;51.084;11.086;2024-02-21T08:03:28;11.37;;;4.47;;
84759;SDS011;74983;51.084;11.086;2024-02-21T08:05:53;11.53;;;4.77;;
84759;SDS011;74983;51.084;11.086;2024-02-21T08:08:19;12.13;;;4.33;;
84759;SDS011;74983;51.084;11.086;2024-02-21T08:10:46;10.57;;;3.78;;
84759;SDS011;74983;51.084;11.086;2024-02-21T08:13:11;8.47;;;3.50;;
84759;SDS011;74983;51.084;11.086;2024-02-21T08:15:37;7.50;;;3.43;;
84759;SDS011;74983;51.084;11.086;2024-02-21T08:18:04;8.50;;;3.92;;
84759;SDS011;74983;51.084;11.086;2024-02-21T08:20:30;7.93;;;3.67;;
84759;SDS011;74983;51.084;11.086;2024-02-21T08:22:55;11.07;;;4.93;;
84759;SDS011;74983;51.084;11.086;2024-02-21T08:25:20;8.17;;;3.77;;
84759;SDS011;74983;51.084;11.086;2024-02-21T08:27:45;8.30;;;3.30;;
84759;SDS011;74983;51.084;11.086;2024-02-21T08:30:11;12.57;;;3.87;;
84759;SDS011;74983;51.084;11.086;2024-02-21T08:32:36;9.32;;;3.42;;
84759;SDS011;74983;51.084;11.086;2024-02-21T08:35:02;9.93;;;3.60;;
84759;SDS011;74983;51.084;11.086;2024-02-21T08:37:28;12.52;;;4.40;;
84759;SDS011;74983;51.084;11.086;2024-02-21T08:39:53;10.30;;;3.97;;
84759;SDS011;74983;51.084;11.086;2024-02-21T08:42:19;8.40;;;3.20;;
84759;SDS011;74983;51.084;11.086;2024-02-21T08:44:44;6.63;;;3.57;;
84759;SDS011;74983;51.084;11.086;2024-02-21T08:47:09;7.07;;;3.00;;
84759;SDS011;74983;51.084;11.086;2024-02-21T08:49:35;4.05;;;2.13;;
84759;SDS011;74983;51.084;11.086;2024-02-21T08:52:00;5.93;;;2.75;;
84759;SDS011;74983;51.084;11.086;2024-02-21T08:54:30;5.22;;;2.92;;
84759;SDS011;74983;51.084;11.086;2024-02-21T08:56:56;8.00;;;2.33;;
84759;SDS011;74983;51.084;11.086;2024-02-21T08:59:21;7.53;;;3.45;;
84759;SDS011;74983;51.084;11.086;2024-02-21T09:01:47;6.90;;;3.50;;
84759;SDS011;74983;51.084;11.086;2024-02-21T09:04:12;8.10;;;3.73;;
84759;SDS011;74983;51.084;11.086;2024-02-21T09:06:37;8.20;;;4.00;;
84759;SDS011;74983;51.084;11.086;2024-02-21T09:09:06;6.97;;;3.95;;
84759;SDS011;74983;51.084;11.086;2024-02-21T09:11:33;6.05;;;4.00;;
84759;SDS011;74983;51.084;11.086;2024-02-21T09:13:58;9.82;;;2.92;;
84759;SDS011;74983;51.084;11.086;2024-02-21T09:16:23;7.00;;;2.93;;
84759;SDS011;74983;51.084;11.086;2024-02-21T09:18:49;8.10;;;3.80;;
84759;SDS011;74983;51.084;11.086;2024-02-21T09:21:14;6.17;;;2.20;;
84759;SDS011;74983;51.084;11.086;2024-02-21T09:23:39;5.80;;;2.80;;
84759;SDS011;74983;51.084;11.086;2024-02-21T09:26:04;7.70;;;3.00;;
84759;SDS011;74983;51.084;11.086;2024-02-21T09:28:30;8.07;;;3.27;;
84759;SDS011;74983;51.084;11.086;2024-02-21T09:30:55;4.78;;;2.55;;
84759;SDS011;74983;51.084;11.086;2024-02-21T09:33:20;9.38;;;2.95;;
84759;SDS011;74983;51.084;11.086;2024-02-21T09:35:46;6.23;;;2.23;;
84759;SDS011;74983;51.084;11.086;2024-02-21T09:38:12;4.28;;;2.13;;
84759;SDS011;74983;51.084;11.086;2024-02-21T09:40:37;4.50;;;2.03;;
84759;SDS011;74983;51.084;11.086;2024-02-21T09:43:04;4.07;;;2.38;;
84759;SDS011;74983;51.084;11.086;2024-02-21T09:45:31;6.50;;;2.47;;
84759;SDS011;74983;51.084;11.086;2024-02-21T09:48:02;4.53;;;1.90;;
84759;SDS011;74983;51.084;11.086;2024-02-21T09:50:38;5.10;;;2.25;;
84759;SDS011;74983;51.084;11.086;2024-02-21T09:53:05;6.70;;;2.83;;
84759;SDS011;74983;51.084;11.086;2024-02-21T09:55:31;6.88;;;2.80;;
84759;SDS011;74983;51.084;11.086;2024-02-21T09:57:59;7.10;;;2.80;;
84759;SDS011;74983;51.084;11.086;2024-02-21T10:00:26;3.88;;;1.85;;
84759;SDS011;74983;51.084;11.086;2024-02-21T10:02:52;4.50;;;2.40;;
84759;SDS011;74983;51.084;11.086;2024-02-21T10:05:18;5.75;;;2.05;;
84759;SDS011;74983;51.084;11.086;2024-02-21T10:07:43;2.53;;;2.23;;
84759;SDS011;74983;51.084;11.086;2024-02-21T10:10:09;7.23;;;2.23;;
84759;SDS011;74983;51.084;11.086;2024-02-21T10:12:34;5.32;;;1.83;;
84759;SDS011;74983;51.084;11.086;2024-02-21T10:15:00;5.10;;;2.23;;
84759;SDS011;74983;51.084;11.086;2024-02-21T10:17:29;5.50;;;2.65;;
84759;SDS011;74983;51.084;11.086;2024-02-21T10:19:55;2.37;;;1.63;;
84759;SDS011;74983;51.084;11.086;2024-02-21T10:22:20;4.18;;;1.90;;
84759;SDS011;74983;51.084;11.086;2024-02-21T10:24:51;7.40;;;2.95;;
84759;SDS011;74983;51.084;11.086;2024-02-21T10:27:16;5.77;;;2.60;;
84759;SDS011;74983;51.084;11.086;2024-02-21T10:29:41;6.93;;;3.20;;
84759;SDS011;74983;51.084;11.086;2024-02-21T10:32:13;5.40;;;3.07;;
84759;SDS011;74983;51.084;11.086;2024-02-21T10:34:39;6.60;;;3.05;;
84759;SDS011;74983;51.084;11.086;2024-02-21T10:37:06;8.43;;;2.75;;
84759;SDS011;74983;51.084;11.086;2024-02-21T10:39:33;6.63;;;3.13;;
84759;SDS011;74983;51.084;11.086;2024-02-21T10:42:00;4.68;;;2.20;;
84759;SDS011;74983;51.084;11.086;2024-02-21T10:44:30;5.43;;;2.72;;
84759;SDS011;74983;51.084;11.086;2024-02-21T10:46:58;6.40;;;2.95;;
84759;SDS011;74983;51.084;11.086;2024-02-21T10:49:25;6.70;;;2.85;;
84759;SDS011;74983;51.084;11.086;2024-02-21T10:56:54;3.53;;;2.10;;
84759;SDS011;74983;51.084;11.086;2024-02-21T10:59:22;5.45;;;2.58;;
84759;SDS011;74983;51.084;11.086;2024-02-21T11:01:48;4.55;;;2.58;;
84759;SDS011;74983;51.084;11.086;2024-02-21T11:04:14;8.18;;;2.63;;
84759;SDS011;74983;51.084;11.086;2024-02-21T11:06:42;6.43;;;2.35;;
84759;SDS011;74983;51.084;11.086;2024-02-21T11:09:10;5.30;;;2.75;;
84759;SDS011;74983;51.084;11.086;2024-02-21T11:11:39;7.55;;;3.28;;
84759;SDS011;74983;51.084;11.086;2024-02-21T11:14:10;5.40;;;2.60;;
84759;SDS011;74983;51.084;11.086;2024-02-21T11:16:45;5.38;;;1.88;;
84759;SDS011;74983;51.084;11.086;2024-02-21T11:19:21;5.28;;;2.88;;
84759;SDS011;74983;51.084;11.086;2024-02-21T11:21:47;4.28;;;1.80;;
84759;SDS011;74983;51.084;11.086;2024-02-21T11:24:13;6.32;;;2.75;;
84759;SDS011;74983;51.084;11.086;2024-02-21T11:26:39;4.68;;;2.22;;
84759;SDS011;74983;51.084;11.086;2024-02-21T11:29:07;4.97;;;2.60;;
84759;SDS011;74983;51.084;11.086;2024-02-21T11:31:40;7.25;;;2.55;;
84759;SDS011;74983;51.084;11.086;2024-02-21T11:34:09;5.85;;;2.50;;
84759;SDS011;74983;51.084;11.086;2024-02-21T11:36:36;2.83;;;2.05;;
84759;SDS011;74983;51.084;11.086;2024-02-21T11:39:10;6.75;;;2.35;;
84759;SDS011;74983;51.084;11.086;2024-02-21T11:41:36;4.27;;;2.30;;
84759;SDS011;74983;51.084;11.086;2024-02-21T11:44:01;6.27;;;2.23;;
84759;SDS011;74983;51.084;11.086;2024-02-21T11:46:26;7.23;;;3.53;;
84759;SDS011;74983;51.084;11.086;2024-02-21T11:48:51;6.37;;;3.33;;
84759;SDS011;74983;51.084;11.086;2024-02-21T11:51:26;3.87;;;2.47;;
84759;SDS011;74983;51.084;11.086;2024-02-21T11:53:52;7.00;;;2.75;;
84759;SDS011;74983;51.084;11.086;2024-02-21T11:56:18;5.63;;;3.05;;
84759;SDS011;74983;51.084;11.086;2024-02-21T11:58:45;5.30;;;2.40;;
84759;SDS011;74983;51.084;11.086;2024-02-21T12:01:12;6.60;;;3.00;;
84759;SDS011;74983;51.084;11.086;2024-02-21T12:03:38;3.85;;;2.47;;
84759;SDS011;74983;51.084;11.086;2024-02-21T12:06:03;6.73;;;2.37;;
84759;SDS011;74983;51.084;11.086;2024-02-21T12:08:43;6.50;;;2.45;;
84759;SDS011;74983;51.084;11.086;2024-02-21T12:13:44;3.10;;;2.03;;
84759;SDS011;74983;51.084;11.086;2024-02-21T12:16:10;3.80;;;1.75;;
84759;SDS011;74983;51.084;11.086;2024-02-21T12:18:36;3.27;;;2.20;;
84759;SDS011;74983;51.084;11.086;2024-02-21T12:21:01;4.05;;;2.20;;
84759;SDS011;74983;51.084;11.086;2024-02-21T12:23:27;4.65;;;2.42;;
84759;SDS011;74983;51.084;11.086;2024-02-21T12:25:52;4.28;;;1.90;;
84759;SDS011;74983;51.084;11.086;2024-02-21T12:28:20;9.73;;;2.22;;
84759;SDS011;74983;51.084;11.086;2024-02-21T12:30:46;5.53;;;2.65;;
84759;SDS011;74983;51.084;11.086;2024-02-21T12:33:12;6.35;;;2.80;;
84759;SDS011;74983;51.084;11.086;2024-02-21T12:35:39;6.65;;;2.20;;
84759;SDS011;74983;51.084;11.086;2024-02-21T12:38:04;4.40;;;2.00;;
84759;SDS011;74983;51.084;11.086;2024-02-21T12:40:30;3.67;;;1.95;;
84759;SDS011;74983;51.084;11.086;2024-02-21T12:42:59;4.57;;;2.30;;
84759;SDS011;74983;51.084;11.086;2024-02-21T12:45:25;5.82;;;1.80;;
84759;SDS011;74983;51.084;11.086;2024-02-21T12:47:50;3.63;;;2.03;;
84759;SDS011;74983;51.084;11.086;2024-02-21T12:50:16;6.13;;;1.83;;
84759;SDS011;74983;51.084;11.086;2024-02-21T12:52:41;5.43;;;1.77;;
84759;SDS011;74983;51.084;11.086;2024-02-21T12:55:06;4.70;;;1.70;;
84759;SDS011;74983;51.084;11.086;2024-02-21T12:57:32;6.97;;;1.95;;
84759;SDS011;74983;51.084;11.086;2024-02-21T12:59:57;7.73;;;1.97;;
84759;SDS011;74983;51.084;11.086;2024-02-21T13:02:22;5.93;;;2.20;;
84759;SDS011;74983;51.084;11.086;2024-02-21T13:04:48;6.87;;;2.30;;
84759;SDS011;74983;51.084;11.086;2024-02-21T13:07:13;3.63;;;2.07;;
84759;SDS011;74983;51.084;11.086;2024-02-21T13:09:38;4.68;;;1.88;;
84759;SDS011;74983;51.084;11.086;2024-02-21T13:12:04;4.83;;;1.90;;
84759;SDS011;74983;51.084;11.086;2024-02-21T13:14:29;2.90;;;1.38;;
84759;SDS011;74983;51.084;11.086;2024-02-21T13:16:55;6.35;;;2.10;;
84759;SDS011;74983;51.084;11.086;2024-02-21T13:19:20;4.77;;;1.77;;
84759;SDS011;74983;51.084;11.086;2024-02-21T13:21:45;5.10;;;1.83;;
84759;SDS011;74983;51.084;11.086;2024-02-21T13:24:11;3.33;;;1.53;;
84759;SDS011;74983;51.084;11.086;2024-02-21T13:26:36;4.83;;;2.17;;
84759;SDS011;74983;51.084;11.086;2024-02-21T13:29:01;5.40;;;1.80;;
84759;SDS011;74983;51.084;11.086;2024-02-21T13:31:27;4.60;;;2.25;;
84759;SDS011;74983;51.084;11.086;2024-02-21T13:33:52;3.40;;;1.40;;
84759;SDS011;74983;51.084;11.086;2024-02-21T13:36:18;5.07;;;1.70;;
84759;SDS011;74983;51.084;11.086;2024-02-21T13:38:44;3.05;;;1.73;;
84759;SDS011;74983;51.084;11.086;2024-02-21T13:41:09;3.37;;;1.90;;
84759;SDS011;74983;51.084;11.086;2024-02-21T13:43:34;9.53;;;1.90;;
84759;SDS011;74983;51.084;11.086;2024-02-21T13:46:00;3.30;;;2.03;;
84759;SDS011;74983;51.084;11.086;2024-02-21T13:48:30;3.10;;;1.73;;
84759;SDS011;74983;51.084;11.086;2024-02-21T13:50:56;5.40;;;1.70;;
84759;SDS011;74983;51.084;11.086;2024-02-21T13:53:21;4.40;;;2.20;;
84759;SDS011;74983;51.084;11.086;2024-02-21T13:55:48;3.58;;;1.80;;
84759;SDS011;74983;51.084;11.086;2024-02-21T13:58:13;4.07;;;1.85;;
84759;SDS011;74983;51.084;11.086;2024-02-21T14:00:39;6.30;;;1.90;;
84759;SDS011;74983;51.084;11.086;2024-02-21T14:03:05;4.70;;;1.70;;
84759;SDS011;74983;51.084;11.086;2024-02-21T14:05:30;2.55;;;1.05;;
84759;SDS011;74983;51.084;11.086;2024-02-21T14:07:56;5.13;;;1.50;;
84759;SDS011;74983;51.084;11.086;2024-02-21T14:10:21;3.17;;;1.52;;
84759;SDS011;74983;51.084;11.086;2024-02-21T14:12:47;3.10;;;1.35;;
84759;SDS011;74983;51.084;11.086;2024-02-21T14:15:15;5.72;;;2.05;;
84759;SDS011;74983;51.084;11.086;2024-02-21T14:17:41;3.92;;;1.80;;
84759;SDS011;74983;51.084;11.086;2024-02-21T14:20:07;5.13;;;1.55;;
84759;SDS011;74983;51.084;11.086;2024-02-21T14:22:33;4.25;;;1.58;;
84759;SDS011;74983;51.084;11.086;2024-02-21T14:24:59;2.60;;;1.52;;
84759;SDS011;74983;51.084;11.086;2024-02-21T14:27:25;5.32;;;1.55;;
84759;SDS011;74983;51.084;11.086;2024-02-21T14:29:50;8.23;;;2.17;;
84759;SDS011;74983;51.084;11.086;2024-02-21T14:32:15;5.40;;;1.83;;